This is the latest recevied weather packets stored in our database for station/object IK4NOW-13. If no packets are shown the sender has not sent any weather packets the latest 10 day(s).
| Time | Temp. | Humidity | Pressure | Rain* | Wind** | Luminosity | Snow |
|---|---|---|---|---|---|---|---|
| 1788134779 | 73° F | 51% | 761.2 mmHg | - | - | - | - |
| 1788132074 | 75° F | 51% | 761.3 mmHg | - | - | - | - |
| 1788129370 | 79° F | 48% | 761.3 mmHg | - | - | - | - |
| 1788126665 | 80° F | 48% | 761.2 mmHg | - | - | - | - |
| 1788123960 | 77° F | 51% | 761.2 mmHg | - | - | - | - |
| 1788121255 | 78° F | 51% | 761.2 mmHg | - | - | - | - |
| 1788118550 | 80° F | 49% | 761.2 mmHg | - | - | - | - |
| 1788115845 | 81° F | 48% | 761.1 mmHg | - | - | - | - |
| 1788113140 | 82° F | 46% | 760.7 mmHg | - | - | - | - |
| 1788110435 | 84° F | 45% | 760.4 mmHg | - | - | - | - |
| 1788107731 | 85° F | 45% | 760.5 mmHg | - | - | - | - |
| 1788105026 | 86° F | 44% | 760.4 mmHg | - | - | - | - |
| 1788102321 | 87° F | 44% | 760.5 mmHg | - | - | - | - |
| 1788099616 | 89° F | 43% | 760.4 mmHg | - | - | - | - |
| 1788094206 | 91° F | 41% | 760.9 mmHg | - | - | - | - |
| 1788091501 | 89° F | 42% | 761.1 mmHg | - | - | - | - |
| 1788088797 | 89° F | 43% | 761.2 mmHg | - | - | - | - |
| 1788086092 | 88° F | 44% | 761.4 mmHg | - | - | - | - |
| 1788083387 | 86° F | 44% | 761.8 mmHg | - | - | - | - |
| 1788080683 | 83° F | 45% | 762 mmHg | - | - | - | - |
| 1788077978 | 81° F | 44% | 761.9 mmHg | - | - | - | - |
| 1788075274 | 79° F | 45% | 761.8 mmHg | - | - | - | - |
| 1788072569 | 75° F | 46% | 761.7 mmHg | - | - | - | - |
| 1788069864 | 71° F | 47% | 761.6 mmHg | - | - | - | - |
| 1788064454 | 70° F | 47% | 761.2 mmHg | - | - | - | - |
* Rain since midnight (hover to see other rain measurements)
** Current wind speed in m/s (hover to see current wind gust speed)